createdAt,value
2023-02-17T00:00:56.692Z,100384.66
2023-02-17T00:04:58.562Z,100395.94
2023-02-17T00:09:00.568Z,100407.09
2023-02-17T00:13:02.325Z,100411.28
2023-02-17T00:17:04.119Z,100405.88
2023-02-17T00:21:20.840Z,100411.09
2023-02-17T00:25:22.581Z,100395.69
2023-02-17T00:29:24.480Z,100396.38
2023-02-17T00:33:26.430Z,100377.63
2023-02-17T00:37:28.350Z,100378.38
2023-02-17T00:41:30.161Z,100387.00
2023-02-17T00:45:31.936Z,100393.44
2023-02-17T00:49:33.738Z,100385.84
2023-02-17T00:53:35.702Z,100385.84
2023-02-17T00:57:37.597Z,100373.38
2023-02-17T01:01:40.864Z,100367.88
2023-02-17T01:05:44.032Z,100367.63
2023-02-17T01:09:45.789Z,100368.44
2023-02-17T01:13:47.728Z,100366.63
2023-02-17T01:17:49.511Z,100350.31
2023-02-17T01:21:51.274Z,100365.84
2023-02-17T01:25:53.305Z,100357.19
2023-02-17T01:29:55.314Z,100359.06
2023-02-17T01:33:58.789Z,100342.88
2023-02-17T01:38:01.751Z,100353.06
2023-02-17T01:42:03.642Z,100348.22
2023-02-17T01:46:07.061Z,100345.09
2023-02-17T01:50:09.208Z,100334.13
2023-02-17T01:54:17.428Z,100341.53
2023-02-17T01:58:19.843Z,100343.19
2023-02-17T02:02:21.714Z,100338.09
2023-02-17T02:06:25.682Z,100332.75
2023-02-17T02:10:27.450Z,100313.59
2023-02-17T02:14:29.483Z,100312.25
2023-02-17T02:18:44.244Z,100296.97
2023-02-17T02:23:19.956Z,100293.13
2023-02-17T02:27:57.967Z,100277.97
2023-02-17T02:32:49.229Z,100262.28
2023-02-17T02:36:58.490Z,100257.50
2023-02-17T02:41:06.669Z,100254.44
2023-02-17T02:45:10.129Z,100246.09
2023-02-17T02:49:12.019Z,100241.25
2023-02-17T02:53:36.233Z,100243.06
2023-02-17T02:57:55.217Z,100210.88
2023-02-17T03:02:14.134Z,100219.41
2023-02-17T03:06:22.494Z,100240.00
2023-02-17T03:10:24.335Z,100220.16
2023-02-17T03:14:26.189Z,100233.84
2023-02-17T03:18:27.976Z,100224.72
2023-02-17T03:22:40.788Z,100224.59
2023-02-17T03:26:42.695Z,100222.13
2023-02-17T03:30:44.619Z,100225.41
2023-02-17T03:34:46.436Z,100218.44
2023-02-17T03:38:48.301Z,100220.22
2023-02-17T03:42:50.098Z,100212.94
2023-02-17T03:46:51.979Z,100212.66
2023-02-17T03:50:53.777Z,100223.66
2023-02-17T03:54:55.552Z,100212.81
2023-02-17T03:58:57.339Z,100215.81
2023-02-17T04:03:00.380Z,100199.84
2023-02-17T04:07:02.452Z,100204.41
2023-02-17T04:11:05.157Z,100214.69
2023-02-17T04:15:07.488Z,100220.19
2023-02-17T04:19:09.343Z,100213.28
2023-02-17T04:23:11.792Z,100216.59
2023-02-17T04:27:14.890Z,100219.00
2023-02-17T04:31:17.066Z,100213.09
2023-02-17T04:35:18.911Z,100210.06
2023-02-17T04:39:21.087Z,100208.66
2023-02-17T04:43:26.694Z,100200.00
2023-02-17T04:47:28.727Z,100203.88
2023-02-17T04:51:30.504Z,100201.63
2023-02-17T04:55:33.444Z,100193.69
2023-02-17T04:59:35.425Z,100175.28
2023-02-17T05:03:37.303Z,100177.38
2023-02-17T05:07:39.084Z,100197.03
2023-02-17T05:11:41.003Z,100188.66
2023-02-17T05:15:44.877Z,100185.09
2023-02-17T05:19:46.700Z,100197.31
2023-02-17T05:23:48.457Z,100200.31
2023-02-17T05:27:50.256Z,100188.50
2023-02-17T05:31:52.347Z,100185.34
2023-02-17T05:35:54.158Z,100188.50
2023-02-17T05:39:55.980Z,100170.13
2023-02-17T05:43:58.041Z,100179.19
2023-02-17T05:47:59.827Z,100172.72
2023-02-17T05:52:02.408Z,100175.63
2023-02-17T05:56:05.081Z,100158.03
2023-02-17T06:00:08.303Z,100166.13
2023-02-17T06:04:10.153Z,100155.31
2023-02-17T06:08:11.965Z,100155.03
2023-02-17T06:12:13.849Z,100159.25
2023-02-17T06:16:15.824Z,100157.78
2023-02-17T06:20:17.819Z,100151.13
2023-02-17T06:24:19.898Z,100161.78
2023-02-17T06:28:21.789Z,100153.66
2023-02-17T06:32:23.616Z,100158.88
2023-02-17T06:36:25.412Z,100166.84
2023-02-17T06:40:28.803Z,100162.44
2023-02-17T06:44:31.264Z,100158.06
2023-02-17T06:48:33.297Z,100170.44
2023-02-17T06:52:35.237Z,100139.38
2023-02-17T06:56:37.072Z,100133.72
2023-02-17T07:00:38.873Z,100147.63
2023-02-17T07:04:41.532Z,100152.00
2023-02-17T07:08:43.299Z,100158.22
2023-02-17T07:12:45.130Z,100157.00
2023-02-17T07:16:46.926Z,100164.69
2023-02-17T07:20:48.769Z,100138.84
2023-02-17T07:24:50.600Z,100164.13
2023-02-17T07:28:52.615Z,100160.28
2023-02-17T07:32:54.424Z,100153.53
2023-02-17T07:36:56.195Z,100147.09
2023-02-17T07:40:58.090Z,100140.75
2023-02-17T07:44:59.916Z,100140.22
2023-02-17T07:49:04.221Z,100143.22
2023-02-17T07:53:05.986Z,100133.75
2023-02-17T07:57:07.816Z,100121.50
2023-02-17T08:01:18.929Z,100106.66
2023-02-17T08:05:20.707Z,100125.59
2023-02-17T08:09:41.332Z,100143.22
2023-02-17T08:13:43.128Z,100134.16
2023-02-17T08:17:45.023Z,100152.78
2023-02-17T08:21:46.930Z,100141.31
2023-02-17T08:25:48.790Z,100140.13
2023-02-17T08:29:51.221Z,100158.56
2023-02-17T08:33:53.170Z,100129.41
2023-02-17T08:37:55.012Z,100134.84
2023-02-17T08:41:56.885Z,100136.78
2023-02-17T08:45:58.803Z,100135.41
2023-02-17T08:50:00.698Z,100121.88
2023-02-17T08:54:03.503Z,100128.47
2023-02-17T08:58:05.448Z,100127.22
2023-02-17T09:02:07.337Z,100115.88
2023-02-17T09:06:09.608Z,100101.47
2023-02-17T09:10:11.835Z,100096.72
2023-02-17T09:14:13.601Z,100083.88
2023-02-17T09:18:16.658Z,100072.09
2023-02-17T09:22:31.450Z,100069.97
2023-02-17T09:26:35.193Z,100065.38
2023-02-17T09:30:37.321Z,100064.59
2023-02-17T09:34:39.506Z,100061.28
2023-02-17T09:38:42.046Z,100062.00
2023-02-17T09:42:43.940Z,100048.00
2023-02-17T09:47:02.095Z,100048.63
2023-02-17T09:51:33.699Z,100037.56
2023-02-17T09:55:41.149Z,100033.28
2023-02-17T09:59:48.185Z,100025.88
2023-02-17T10:04:04.118Z,100000.25
2023-02-17T10:08:11.265Z,100005.06
2023-02-17T10:12:20.826Z,99999.53
2023-02-17T10:16:31.137Z,99997.72
2023-02-17T10:20:56.206Z,99994.84
2023-02-17T10:24:58.085Z,99998.47
2023-02-17T10:29:14.572Z,99977.53
2023-02-17T10:33:36.364Z,99980.44
2023-02-17T10:37:44.240Z,99944.56
2023-02-17T10:41:46.728Z,99933.78
2023-02-17T10:45:51.769Z,99937.34
2023-02-17T10:50:01.463Z,99927.47
2023-02-17T10:54:35.169Z,99921.81
2023-02-17T10:58:56.225Z,99902.31
2023-02-17T11:03:00.501Z,99900.88
2023-02-17T11:07:02.737Z,99898.09
2023-02-17T11:11:29.510Z,99889.53
2023-02-17T11:15:47.808Z,99882.41
2023-02-17T11:20:09.931Z,99879.16
2023-02-17T11:24:20.373Z,99853.53
2023-02-17T11:28:25.090Z,99848.00
2023-02-17T11:32:35.143Z,99838.84
2023-02-17T11:36:39.985Z,99828.78
2023-02-17T11:40:57.479Z,99820.16
2023-02-17T11:45:01.057Z,99818.34
2023-02-17T11:49:38.498Z,99833.75
2023-02-17T11:54:21.520Z,99797.53
2023-02-17T11:58:56.110Z,99788.41
2023-02-17T12:03:40.901Z,99780.53
2023-02-17T12:08:14.689Z,99787.94
2023-02-17T12:12:48.306Z,99768.91
2023-02-17T12:17:21.077Z,99775.63
2023-02-17T12:21:39.340Z,99764.44
2023-02-17T12:25:54.318Z,99771.50
2023-02-17T12:30:18.609Z,99755.41
2023-02-17T12:34:42.234Z,99733.94
2023-02-17T12:38:52.126Z,99709.31
2023-02-17T12:43:15.113Z,99723.72
2023-02-17T12:47:26.411Z,99700.56
2023-02-17T12:51:34.121Z,99704.63
2023-02-17T12:55:50.238Z,99704.25
2023-02-17T12:59:52.478Z,99705.03
2023-02-17T13:03:54.230Z,99704.59
2023-02-17T13:08:33.621Z,99703.16
2023-02-17T13:12:40.494Z,99674.25
2023-02-17T13:16:44.893Z,99670.91
2023-02-17T13:21:00.990Z,99664.06
2023-02-17T13:25:02.843Z,99680.72
2023-02-17T13:29:23.497Z,99652.53
2023-02-17T13:33:25.314Z,99641.22
2023-02-17T13:37:33.066Z,99642.78
2023-02-17T13:41:59.416Z,99628.59
2023-02-17T13:46:03.723Z,99619.38
2023-02-17T13:50:06.868Z,99635.50
2023-02-17T13:54:09.521Z,99600.28
2023-02-17T13:58:11.356Z,99611.59
2023-02-17T14:02:35.136Z,99608.75
2023-02-17T14:06:37.967Z,99621.88
2023-02-17T14:10:41.070Z,99615.97
2023-02-17T14:14:42.912Z,99626.59
2023-02-17T14:18:48.376Z,99604.78
2023-02-17T14:23:03.414Z,99601.50
2023-02-17T14:27:08.837Z,99600.03
2023-02-17T14:31:11.682Z,99596.38
2023-02-17T14:35:21.546Z,99593.84
2023-02-17T14:39:23.385Z,99568.59
2023-02-17T14:43:28.064Z,99579.34
2023-02-17T14:47:29.957Z,99582.84
2023-02-17T14:51:36.926Z,99574.22
2023-02-17T14:56:10.591Z,99585.06
2023-02-17T15:00:14.281Z,99558.91
2023-02-17T15:04:16.296Z,99549.56
2023-02-17T15:08:34.823Z,99548.47
2023-02-17T15:12:36.751Z,99542.22
2023-02-17T15:16:38.769Z,99547.25
2023-02-17T15:20:42.195Z,99556.69
2023-02-17T15:24:44.057Z,99578.63
2023-02-17T15:28:46.139Z,99613.06
2023-02-17T15:32:53.992Z,99611.13
2023-02-17T15:36:58.495Z,99622.56
2023-02-17T15:41:04.688Z,99643.69
2023-02-17T15:45:22.926Z,99612.22
2023-02-17T15:49:34.676Z,99629.94
2023-02-17T15:53:36.608Z,99609.34
2023-02-17T15:57:41.542Z,99625.19
2023-02-17T16:01:43.630Z,99649.69
2023-02-17T16:05:48.096Z,99638.59
2023-02-17T16:09:50.834Z,99617.63
2023-02-17T16:13:52.829Z,99637.72
2023-02-17T16:18:06.488Z,99601.25
2023-02-17T16:22:08.528Z,99623.22
2023-02-17T16:26:36.868Z,99622.25
2023-02-17T16:30:38.733Z,99629.78
2023-02-17T16:34:48.284Z,99634.34
2023-02-17T16:38:53.344Z,99630.72
2023-02-17T16:42:55.398Z,99634.22
2023-02-17T16:47:00.098Z,99628.78
2023-02-17T16:51:02.170Z,99629.75
2023-02-17T16:55:07.595Z,99630.88
2023-02-17T16:59:23.282Z,99630.75
2023-02-17T17:03:25.196Z,99624.19
2023-02-17T17:07:28.723Z,99610.94
2023-02-17T17:11:30.862Z,99618.28
2023-02-17T17:15:52.832Z,99615.66
2023-02-17T17:19:54.613Z,99645.16
2023-02-17T17:23:56.531Z,99637.41
2023-02-17T17:27:58.342Z,99638.88
2023-02-17T17:32:00.264Z,99662.81
2023-02-17T17:36:02.530Z,99639.94
2023-02-17T17:40:05.811Z,99675.16
2023-02-17T17:44:10.139Z,99677.47
2023-02-17T17:48:13.986Z,99673.59
2023-02-17T17:52:15.906Z,99680.94
2023-02-17T17:56:24.871Z,99686.66
2023-02-17T18:00:29.961Z,99698.06
2023-02-17T18:04:33.812Z,99691.84
2023-02-17T18:08:35.894Z,99703.59
2023-02-17T18:12:38.153Z,99706.00
2023-02-17T18:16:40.364Z,99712.38
2023-02-17T18:20:42.287Z,99744.66
2023-02-17T18:24:47.433Z,99762.63
2023-02-17T18:28:51.705Z,99782.78
2023-02-17T18:32:55.838Z,99786.63
2023-02-17T18:36:59.629Z,99805.47
2023-02-17T18:41:01.509Z,99835.94
2023-02-17T18:45:04.612Z,99850.22
2023-02-17T18:49:07.142Z,99868.50
2023-02-17T18:53:09.154Z,99858.06
2023-02-17T18:57:12.080Z,99877.81
2023-02-17T19:01:28.906Z,99874.75
2023-02-17T19:05:30.830Z,99887.75
2023-02-17T19:09:37.825Z,99894.47
2023-02-17T19:13:39.849Z,99902.88
2023-02-17T19:17:41.680Z,99902.94
2023-02-17T19:21:45.014Z,99872.63
2023-02-17T19:25:49.789Z,99902.13
2023-02-17T19:29:54.678Z,99896.25
2023-02-17T19:33:56.705Z,99901.66
2023-02-17T19:38:01.474Z,99906.94
2023-02-17T19:42:06.706Z,99878.34
2023-02-17T19:46:14.321Z,99878.34
2023-02-17T19:50:18.177Z,99895.78
2023-02-17T19:54:20.072Z,99886.44
2023-02-17T19:58:22.077Z,99878.09
2023-02-17T20:02:24.114Z,99887.50
2023-02-17T20:06:37.628Z,99880.31
2023-02-17T20:10:42.357Z,99869.84
2023-02-17T20:14:45.545Z,99880.31
2023-02-17T20:18:48.903Z,99871.41
2023-02-17T20:22:50.811Z,99894.03
2023-02-17T20:26:54.153Z,99886.34
2023-02-17T20:30:56.201Z,99888.16
2023-02-17T20:34:58.115Z,99886.44
2023-02-17T20:39:00.444Z,99884.88
2023-02-17T20:43:02.740Z,99900.78
2023-02-17T20:47:04.994Z,99880.28
2023-02-17T20:51:10.013Z,99898.94
2023-02-17T20:55:15.544Z,99899.06
2023-02-17T20:59:17.669Z,99903.66
2023-02-17T21:03:19.640Z,99896.47
2023-02-17T21:07:21.509Z,99894.13
2023-02-17T21:11:23.549Z,99896.53
2023-02-17T21:15:25.519Z,99910.34
2023-02-17T21:19:33.025Z,99913.16
2023-02-17T21:23:38.314Z,99909.50
2023-02-17T21:27:40.099Z,99915.81
2023-02-17T21:31:42.148Z,99927.50
2023-02-17T21:35:44.027Z,99930.16
2023-02-17T21:39:46.131Z,99940.66
2023-02-17T21:44:06.805Z,99946.19
2023-02-17T21:48:08.904Z,99952.56
2023-02-17T21:52:10.778Z,99968.75
2023-02-17T21:56:12.648Z,99985.19
2023-02-17T22:00:15.719Z,99996.25
2023-02-17T22:04:17.863Z,100022.03
2023-02-17T22:08:19.981Z,100037.97
2023-02-17T22:12:22.108Z,100063.59
2023-02-17T22:16:24.647Z,100073.91
2023-02-17T22:24:42.469Z,100076.25
2023-02-17T22:28:44.396Z,100093.19
2023-02-17T22:32:46.318Z,100089.47
2023-02-17T22:36:48.179Z,100091.25
2023-02-17T22:40:50.007Z,100094.69
2023-02-17T22:44:51.952Z,100067.66
2023-02-17T22:48:56.653Z,100097.47
2023-02-17T22:52:58.576Z,100116.84
2023-02-17T22:57:05.936Z,100098.28
2023-02-17T23:01:10.494Z,100126.31
2023-02-17T23:05:12.362Z,100113.13
2023-02-17T23:09:16.656Z,100130.00
2023-02-17T23:13:19.344Z,100116.81
2023-02-17T23:17:21.186Z,100124.13
2023-02-17T23:21:23.144Z,100121.09
2023-02-17T23:25:24.945Z,100134.88
2023-02-17T23:29:28.414Z,100117.94
2023-02-17T23:33:30.216Z,100130.72
2023-02-17T23:37:32.127Z,100125.06
2023-02-17T23:41:36.099Z,100109.16
2023-02-17T23:45:38.569Z,100131.53
2023-02-17T23:49:40.333Z,100142.97
2023-02-17T23:53:42.163Z,100140.25
2023-02-17T23:57:44.084Z,100161.25
